createdAt,value
2023-04-18T00:00:30.198Z,93.06
2023-04-18T00:05:31.901Z,93.10
2023-04-18T00:10:33.664Z,92.88
2023-04-18T00:15:35.681Z,92.81
2023-04-18T00:20:38.947Z,92.61
2023-04-18T00:25:41.333Z,93.17
2023-04-18T00:30:43.234Z,92.78
2023-04-18T00:35:45.082Z,92.77
2023-04-18T00:40:46.860Z,92.50
2023-04-18T00:45:48.634Z,92.70
2023-04-18T00:50:50.502Z,93.10
2023-04-18T00:55:53.541Z,92.87
2023-04-18T01:00:55.309Z,93.25
2023-04-18T01:05:57.484Z,92.93
2023-04-18T01:10:59.247Z,93.13
2023-04-18T01:16:01.141Z,93.10
2023-04-18T01:21:03.014Z,92.90
2023-04-18T01:26:05.419Z,93.15
2023-04-18T01:31:07.337Z,92.30
2023-04-18T01:36:09.163Z,92.56
2023-04-18T01:41:11.115Z,92.51
2023-04-18T01:46:12.982Z,92.30
2023-04-18T01:51:14.850Z,92.87
2023-04-18T01:56:16.993Z,92.56
2023-04-18T02:01:18.832Z,92.89
2023-04-18T02:06:20.715Z,92.96
2023-04-18T02:11:22.530Z,92.59
2023-04-18T02:16:24.359Z,92.29
2023-04-18T02:21:26.184Z,92.89
2023-04-18T02:26:27.942Z,91.75
2023-04-18T02:31:29.994Z,92.03
2023-04-18T02:36:31.917Z,91.66
2023-04-18T02:41:34.853Z,91.54
2023-04-18T02:46:36.630Z,91.95
2023-04-18T02:51:38.448Z,91.67
2023-04-18T02:56:40.305Z,91.77
2023-04-18T03:01:42.132Z,91.79
2023-04-18T03:06:43.944Z,91.86
2023-04-18T03:11:46.544Z,91.55
2023-04-18T03:16:48.668Z,91.50
2023-04-18T03:21:50.505Z,91.87
2023-04-18T03:26:52.240Z,91.42
2023-04-18T03:31:54.096Z,90.76
2023-04-18T03:36:55.967Z,91.04
2023-04-18T03:41:57.740Z,90.52
2023-04-18T03:46:59.992Z,90.64
2023-04-18T03:52:01.787Z,90.43
2023-04-18T03:57:03.709Z,90.35
2023-04-18T04:02:05.766Z,90.54
2023-04-18T04:07:07.623Z,90.08
2023-04-18T04:12:09.383Z,90.25
2023-04-18T04:17:11.229Z,90.33
2023-04-18T04:22:13.001Z,90.48
2023-04-18T04:27:14.886Z,90.25
2023-04-18T04:32:20.165Z,90.15
2023-04-18T04:37:22.050Z,89.99
2023-04-18T04:42:25.200Z,90.21
2023-04-18T04:47:27.104Z,89.67
2023-04-18T04:52:28.911Z,89.44
2023-04-18T04:57:30.793Z,89.32
2023-04-18T05:02:32.753Z,89.00
2023-04-18T05:07:34.534Z,89.66
2023-04-18T05:12:36.301Z,88.75
2023-04-18T05:17:38.163Z,89.47
2023-04-18T05:22:39.975Z,88.99
2023-04-18T05:27:46.588Z,88.64
2023-04-18T05:32:48.467Z,88.92
2023-04-18T05:37:50.250Z,88.07
2023-04-18T05:42:52.050Z,88.14
2023-04-18T05:47:53.936Z,87.93
2023-04-18T05:52:59.062Z,86.45
2023-04-18T05:58:01.001Z,85.13
2023-04-18T06:03:03.078Z,82.40
2023-04-18T06:08:05.043Z,79.67
2023-04-18T06:13:07.014Z,78.90
2023-04-18T06:18:08.883Z,78.13
2023-04-18T06:23:10.919Z,79.52
2023-04-18T06:28:12.689Z,78.82
2023-04-18T06:33:14.504Z,79.50
2023-04-18T06:38:16.371Z,80.47
2023-04-18T06:43:18.109Z,80.62
2023-04-18T06:48:19.880Z,80.63
2023-04-18T06:53:21.726Z,80.77
2023-04-18T06:58:23.510Z,81.37
2023-04-18T07:03:25.390Z,79.93
2023-04-18T07:08:27.218Z,80.55
2023-04-18T07:13:29.142Z,80.44
2023-04-18T07:18:37.833Z,79.62
2023-04-18T07:23:40.260Z,80.40
2023-04-18T07:28:42.063Z,76.81
2023-04-18T07:33:43.960Z,70.35
2023-04-18T07:38:46.350Z,64.65
2023-04-18T07:43:48.159Z,60.81
2023-04-18T07:48:51.133Z,56.98
2023-04-18T07:53:52.987Z,56.57
2023-04-18T07:58:54.836Z,59.18
2023-04-18T08:03:57.885Z,62.57
2023-04-18T08:09:03.123Z,65.36
2023-04-18T08:14:04.999Z,66.93
2023-04-18T08:19:06.848Z,69.72
2023-04-18T08:24:08.741Z,71.01
2023-04-18T08:29:10.494Z,71.60
2023-04-18T08:34:12.253Z,72.38
2023-04-18T08:39:14.302Z,73.45
2023-04-18T08:44:17.593Z,73.50
2023-04-18T08:49:22.433Z,73.97
2023-04-18T08:54:25.573Z,75.77
2023-04-18T08:59:30.478Z,75.89
2023-04-18T09:04:44.639Z,75.62
2023-04-18T09:09:53.484Z,75.96
2023-04-18T09:15:15.648Z,75.30
2023-04-18T09:20:42.230Z,76.22
2023-04-18T09:25:48.009Z,73.33
2023-04-18T09:30:52.508Z,72.65
2023-04-18T09:35:57.078Z,72.63
2023-04-18T09:41:12.516Z,71.54
2023-04-18T09:46:15.238Z,70.83
2023-04-18T09:51:18.319Z,70.09
2023-04-18T09:56:27.605Z,68.40
2023-04-18T10:01:30.782Z,66.58
2023-04-18T10:06:41.901Z,65.35
2023-04-18T10:11:44.636Z,65.73
2023-04-18T10:16:48.656Z,66.49
2023-04-18T10:21:59.513Z,66.55
2023-04-18T10:27:02.057Z,67.43
2023-04-18T10:32:07.244Z,67.07
2023-04-18T10:37:09.564Z,66.20
2023-04-18T10:42:11.334Z,65.98
2023-04-18T10:47:18.783Z,66.69
2023-04-18T10:52:20.627Z,66.98
2023-04-18T10:57:22.671Z,67.06
2023-04-18T11:02:32.347Z,67.38
2023-04-18T11:07:48.606Z,66.40
2023-04-18T11:12:51.190Z,66.91
2023-04-18T11:18:03.324Z,68.04
2023-04-18T11:23:25.531Z,66.26
2023-04-18T11:28:28.441Z,65.71
2023-04-18T11:33:30.317Z,66.17
2023-04-18T11:38:32.316Z,65.46
2023-04-18T11:43:34.328Z,64.67
2023-04-18T11:48:45.392Z,64.87
2023-04-18T11:53:47.258Z,65.14
2023-04-18T11:58:49.088Z,65.03
2023-04-18T12:04:08.493Z,64.72
2023-04-18T12:09:15.662Z,65.00
2023-04-18T12:14:22.015Z,66.27
2023-04-18T12:19:29.879Z,66.42
2023-04-18T12:24:32.247Z,66.42
2023-04-18T12:29:34.133Z,67.20
2023-04-18T12:34:35.904Z,67.22
2023-04-18T12:39:37.696Z,67.18
2023-04-18T12:44:39.424Z,66.77
2023-04-18T12:49:41.161Z,66.85
2023-04-18T12:54:42.870Z,67.06
2023-04-18T12:59:44.643Z,67.01
2023-04-18T13:04:46.493Z,66.60
2023-04-18T13:09:48.700Z,66.72
2023-04-18T13:14:50.462Z,66.83
2023-04-18T13:19:52.272Z,66.97
2023-04-18T13:24:54.641Z,66.86
2023-04-18T13:29:57.262Z,67.55
2023-04-18T13:34:59.107Z,66.84
2023-04-18T13:40:00.971Z,66.87
2023-04-18T13:45:03.354Z,66.70
2023-04-18T13:50:06.307Z,67.38
2023-04-18T13:55:10.606Z,66.75
2023-04-18T14:00:14.281Z,65.62
2023-04-18T14:05:16.411Z,64.98
2023-04-18T14:10:18.307Z,64.57
2023-04-18T14:15:20.272Z,63.73
2023-04-18T14:20:22.448Z,63.91
2023-04-18T14:25:24.444Z,63.57
2023-04-18T14:30:26.253Z,63.77
2023-04-18T14:35:28.033Z,63.17
2023-04-18T14:40:32.571Z,63.37
2023-04-18T14:45:34.875Z,63.62
2023-04-18T14:50:38.484Z,64.81
2023-04-18T14:55:40.440Z,65.41
2023-04-18T15:00:42.493Z,65.44
2023-04-18T15:05:46.466Z,65.90
2023-04-18T15:10:48.418Z,65.71
2023-04-18T15:15:56.155Z,65.63
2023-04-18T15:21:01.225Z,65.34
2023-04-18T15:26:03.095Z,64.50
2023-04-18T15:31:07.414Z,64.42
2023-04-18T15:36:10.016Z,64.13
2023-04-18T15:41:11.891Z,63.80
2023-04-18T15:46:13.814Z,63.13
2023-04-18T15:51:15.695Z,62.89
2023-04-18T15:56:17.484Z,62.31
2023-04-18T16:01:19.280Z,61.97
2023-04-18T16:06:24.175Z,62.05
2023-04-18T16:11:26.271Z,61.84
2023-04-18T16:16:28.416Z,61.52
2023-04-18T16:21:30.285Z,61.28
2023-04-18T16:26:32.163Z,61.39
2023-04-18T16:31:34.452Z,61.28
2023-04-18T16:36:36.242Z,60.82
2023-04-18T16:41:37.991Z,60.28
2023-04-18T16:46:39.904Z,59.68
2023-04-18T16:51:41.782Z,59.37
2023-04-18T16:56:44.772Z,59.27
2023-04-18T17:01:46.624Z,58.60
2023-04-18T17:06:50.305Z,57.49
2023-04-18T17:11:53.337Z,58.27
2023-04-18T17:16:55.262Z,58.62
2023-04-18T17:21:57.090Z,58.14
2023-04-18T17:27:00.186Z,58.78
2023-04-18T17:32:02.077Z,59.32
2023-04-18T17:37:05.284Z,61.18
2023-04-18T17:42:07.094Z,62.65
2023-04-18T17:47:08.936Z,62.96
2023-04-18T17:52:10.698Z,64.10
2023-04-18T17:57:12.628Z,65.48
2023-04-18T18:02:14.681Z,64.96
2023-04-18T18:07:16.596Z,65.42
2023-04-18T18:12:18.372Z,65.44
2023-04-18T18:17:20.372Z,65.67
2023-04-18T18:22:24.708Z,66.31
2023-04-18T18:27:26.476Z,66.81
2023-04-18T18:32:28.399Z,66.43
2023-04-18T18:37:30.239Z,66.86
2023-04-18T18:42:31.959Z,67.05
2023-04-18T18:47:34.355Z,66.76
2023-04-18T18:52:37.476Z,65.40
2023-04-18T18:57:39.342Z,63.79
2023-04-18T19:02:41.339Z,62.87
2023-04-18T19:07:43.389Z,63.53
2023-04-18T19:12:45.344Z,62.81
2023-04-18T19:17:47.197Z,62.99
2023-04-18T19:22:49.289Z,62.71
2023-04-18T19:27:51.190Z,63.06
2023-04-18T19:32:53.014Z,62.83
2023-04-18T19:38:01.308Z,63.41
2023-04-18T19:43:03.103Z,63.12
2023-04-18T19:48:05.707Z,63.90
2023-04-18T19:53:08.341Z,64.67
2023-04-18T19:58:10.150Z,65.79
2023-04-18T20:03:12.026Z,65.45
2023-04-18T20:08:13.922Z,66.20
2023-04-18T20:13:15.872Z,66.82
2023-04-18T20:18:17.928Z,67.57
2023-04-18T20:23:19.788Z,68.16
2023-04-18T20:28:21.669Z,68.75
2023-04-18T20:33:23.537Z,69.15
2023-04-18T20:38:26.129Z,69.77
2023-04-18T20:43:28.477Z,68.66
2023-04-18T20:48:30.258Z,68.97
2023-04-18T20:53:32.056Z,70.00
2023-04-18T20:58:33.917Z,69.77
2023-04-18T21:03:35.879Z,70.20
2023-04-18T21:08:39.478Z,70.99
2023-04-18T21:13:41.324Z,71.17
2023-04-18T21:18:43.197Z,72.03
2023-04-18T21:23:45.250Z,73.22
2023-04-18T21:29:04.544Z,73.28
2023-04-18T21:34:06.378Z,73.63
2023-04-18T21:39:08.320Z,74.87
2023-04-18T21:44:10.534Z,75.39
2023-04-18T21:49:12.288Z,75.74
2023-04-18T21:54:14.300Z,76.20
2023-04-18T21:59:16.312Z,75.55
2023-04-18T22:04:21.020Z,75.31
2023-04-18T22:09:23.445Z,75.20
2023-04-18T22:14:25.942Z,74.44
2023-04-18T22:19:29.325Z,74.13
2023-04-18T22:24:31.168Z,74.30
2023-04-18T22:29:33.035Z,74.13
2023-04-18T22:34:34.788Z,73.36
2023-04-18T22:39:36.556Z,72.44
2023-04-18T22:44:38.378Z,71.76
2023-04-18T22:49:40.878Z,72.01
2023-04-18T22:54:42.618Z,71.10
2023-04-18T22:59:44.543Z,70.54
2023-04-18T23:04:46.540Z,70.83
2023-04-18T23:09:48.418Z,70.30
2023-04-18T23:14:50.299Z,70.29
2023-04-18T23:19:52.049Z,69.91
2023-04-18T23:24:53.812Z,69.65
2023-04-18T23:29:55.586Z,69.53
2023-04-18T23:34:57.351Z,69.36
2023-04-18T23:40:05.005Z,68.37
2023-04-18T23:45:07.550Z,68.78
2023-04-18T23:50:10.185Z,68.52
2023-04-18T23:55:12.298Z,67.70
